createdAt,value
2023-02-20T00:00:02.561Z,-1.22
2023-02-20T00:02:29.074Z,-1.26
2023-02-20T00:04:55.604Z,-1.25
2023-02-20T00:07:22.234Z,-1.27
2023-02-20T00:09:48.737Z,-1.26
2023-02-20T00:12:15.278Z,-1.25
2023-02-20T00:14:41.859Z,-1.24
2023-02-20T00:17:08.337Z,-1.24
2023-02-20T00:19:34.835Z,-1.25
2023-02-20T00:22:01.406Z,-1.27
2023-02-20T00:24:28.012Z,-1.30
2023-02-20T00:26:54.575Z,-1.34
2023-02-20T00:29:23.296Z,-1.36
2023-02-20T00:31:57.685Z,-1.41
2023-02-20T00:34:27.776Z,-1.45
2023-02-20T00:36:54.456Z,-1.49
2023-02-20T00:39:21.083Z,-1.52
2023-02-20T00:41:47.731Z,-1.54
2023-02-20T00:44:14.214Z,-1.55
2023-02-20T00:46:40.741Z,-1.59
2023-02-20T00:49:07.327Z,-1.61
2023-02-20T00:51:33.980Z,-1.61
2023-02-20T00:54:00.614Z,-1.63
2023-02-20T00:56:27.143Z,-1.62
2023-02-20T00:58:54.079Z,-1.64
2023-02-20T01:01:20.790Z,-1.66
2023-02-20T01:03:47.465Z,-1.64
2023-02-20T01:06:14.206Z,-1.67
2023-02-20T01:08:40.769Z,-1.67
2023-02-20T01:11:07.511Z,-1.68
2023-02-20T01:13:34.115Z,-1.71
2023-02-20T01:16:00.655Z,-1.71
2023-02-20T01:18:27.559Z,-1.71
2023-02-20T01:20:54.206Z,-1.69
2023-02-20T01:23:20.788Z,-1.70
2023-02-20T01:25:47.355Z,-1.71
2023-02-20T01:28:13.907Z,-1.70
2023-02-20T01:30:40.423Z,-1.69
2023-02-20T01:33:06.985Z,-1.68
2023-02-20T01:35:33.559Z,-1.68
2023-02-20T01:38:00.236Z,-1.66
2023-02-20T01:40:27.818Z,-1.63
2023-02-20T01:42:54.386Z,-1.65
2023-02-20T01:45:23.674Z,-1.66
2023-02-20T01:47:53.047Z,-1.66
2023-02-20T01:50:23.808Z,-1.68
2023-02-20T01:52:54.444Z,-1.72
2023-02-20T01:55:33.020Z,-1.77
2023-02-20T01:58:08.073Z,-1.83
2023-02-20T02:00:34.863Z,-1.85
2023-02-20T02:03:07.267Z,-1.89
2023-02-20T02:05:34.115Z,-1.92
2023-02-20T02:08:03.674Z,-1.93
2023-02-20T02:10:36.609Z,-1.95
2023-02-20T02:13:03.385Z,-1.97
2023-02-20T02:15:29.921Z,-1.98
2023-02-20T02:18:02.471Z,-2.04
2023-02-20T02:20:43.978Z,-2.10
2023-02-20T02:23:35.165Z,-2.16
2023-02-20T02:26:13.812Z,-2.22
2023-02-20T02:29:08.692Z,-2.31
2023-02-20T02:31:56.485Z,-2.41
2023-02-20T02:34:26.158Z,-2.49
2023-02-20T02:37:20.429Z,-2.53
2023-02-20T02:39:59.786Z,-2.61
2023-02-20T02:42:28.940Z,-2.66
2023-02-20T02:45:03.586Z,-2.71
2023-02-20T02:47:37.519Z,-2.74
2023-02-20T02:50:21.043Z,-2.76
2023-02-20T02:52:50.613Z,-2.76
2023-02-20T02:55:28.925Z,-2.78
2023-02-20T02:57:55.777Z,-2.78
2023-02-20T03:00:24.232Z,-2.77
2023-02-20T03:02:56.802Z,-2.77
2023-02-20T03:05:26.499Z,-2.80
2023-02-20T03:07:57.915Z,-2.81
2023-02-20T03:10:26.052Z,-2.79
2023-02-20T03:12:54.165Z,-2.75
2023-02-20T03:15:30.022Z,-2.73
2023-02-20T03:18:12.954Z,-2.68
2023-02-20T03:20:44.377Z,-2.64
2023-02-20T03:23:17.552Z,-2.62
2023-02-20T03:25:54.041Z,-2.57
2023-02-20T03:28:31.889Z,-2.53
2023-02-20T03:31:55.931Z,-2.51
2023-02-20T03:34:27.288Z,-2.48
2023-02-20T03:37:09.801Z,-2.50
2023-02-20T03:39:43.938Z,-2.49
2023-02-20T03:42:14.152Z,-2.48
2023-02-20T03:44:41.946Z,-2.47
2023-02-20T03:47:12.025Z,-2.47
2023-02-20T03:49:41.886Z,-2.49
2023-02-20T03:52:09.080Z,-2.49
2023-02-20T03:54:36.785Z,-2.49
2023-02-20T03:57:08.829Z,-2.48
2023-02-20T03:59:44.310Z,-2.49
2023-02-20T04:02:22.225Z,-2.49
2023-02-20T04:04:53.413Z,-2.54
2023-02-20T04:07:25.740Z,-2.49
2023-02-20T04:09:54.279Z,-2.48
2023-02-20T04:12:26.680Z,-2.47
2023-02-20T04:14:57.129Z,-2.43
2023-02-20T04:17:31.760Z,-2.40
2023-02-20T04:19:58.358Z,-2.37
2023-02-20T04:22:32.508Z,-2.34
2023-02-20T04:25:02.833Z,-2.30
2023-02-20T04:27:30.749Z,-2.27
2023-02-20T04:29:57.454Z,-2.24
2023-02-20T04:32:23.957Z,-2.21
2023-02-20T04:34:50.609Z,-2.21
2023-02-20T04:37:19.857Z,-2.20
2023-02-20T04:39:47.195Z,-2.18
2023-02-20T04:42:13.718Z,-2.15
2023-02-20T04:44:40.597Z,-2.11
2023-02-20T04:47:11.368Z,-2.09
2023-02-20T04:49:38.026Z,-2.04
2023-02-20T04:52:04.964Z,-2.00
2023-02-20T04:54:31.576Z,-1.97
2023-02-20T04:56:58.134Z,-1.94
2023-02-20T04:59:25.403Z,-1.92
2023-02-20T05:01:52.586Z,-1.91
2023-02-20T05:04:20.196Z,-1.88
2023-02-20T05:06:50.377Z,-1.85
2023-02-20T05:09:17.357Z,-1.84
2023-02-20T05:11:43.875Z,-1.81
2023-02-20T05:14:10.845Z,-1.79
2023-02-20T05:16:38.910Z,-1.75
2023-02-20T05:19:06.411Z,-1.72
2023-02-20T05:21:33.902Z,-1.67
2023-02-20T05:24:00.406Z,-1.63
2023-02-20T05:26:26.996Z,-1.58
2023-02-20T05:28:53.529Z,-1.55
2023-02-20T05:31:20.129Z,-1.53
2023-02-20T05:33:46.649Z,-1.48
2023-02-20T05:36:13.492Z,-1.44
2023-02-20T05:38:40.180Z,-1.40
2023-02-20T05:41:06.682Z,-1.34
2023-02-20T05:43:33.232Z,-1.29
2023-02-20T05:45:59.788Z,-1.27
2023-02-20T05:48:26.463Z,-1.25
2023-02-20T05:50:53.105Z,-1.21
2023-02-20T05:53:19.581Z,-1.16
2023-02-20T05:55:46.117Z,-1.12
2023-02-20T05:58:12.715Z,-1.07
2023-02-20T06:00:39.229Z,-1.04
2023-02-20T06:03:09.441Z,-1.00
2023-02-20T06:05:36.312Z,-0.95
2023-02-20T06:08:03.246Z,-0.91
2023-02-20T06:10:29.749Z,-0.88
2023-02-20T06:12:56.461Z,-0.84
2023-02-20T06:15:23.138Z,-0.81
2023-02-20T06:17:49.737Z,-0.74
2023-02-20T06:20:16.366Z,-0.74
2023-02-20T06:22:43.033Z,-0.71
2023-02-20T06:25:09.925Z,-0.67
2023-02-20T06:27:39.480Z,-0.63
2023-02-20T06:30:06.361Z,-0.57
2023-02-20T06:32:33.066Z,-0.51
2023-02-20T06:34:59.642Z,-0.44
2023-02-20T06:37:26.271Z,-0.38
2023-02-20T06:39:52.753Z,-0.31
2023-02-20T06:42:19.318Z,-0.24
2023-02-20T06:44:45.846Z,-0.17
2023-02-20T06:47:12.394Z,-0.11
2023-02-20T06:49:39.161Z,-0.04
2023-02-20T06:52:06.329Z,0.02
2023-02-20T06:54:32.898Z,0.08
2023-02-20T06:56:59.505Z,0.15
2023-02-20T06:59:26.048Z,0.19
2023-02-20T07:01:52.667Z,0.24
2023-02-20T07:04:22.564Z,0.29
2023-02-20T07:06:49.213Z,0.33
2023-02-20T07:09:16.334Z,0.34
2023-02-20T07:11:43.827Z,0.41
2023-02-20T07:14:10.618Z,0.41
2023-02-20T07:16:37.149Z,0.43
2023-02-20T07:19:03.848Z,0.47
2023-02-20T07:21:30.392Z,0.53
2023-02-20T07:23:56.874Z,0.57
2023-02-20T07:26:26.561Z,0.62
2023-02-20T07:28:54.828Z,0.67
2023-02-20T07:31:21.842Z,0.73
2023-02-20T07:33:48.530Z,0.80
2023-02-20T07:36:15.536Z,0.84
2023-02-20T07:38:42.141Z,0.86
2023-02-20T07:41:09.884Z,0.85
2023-02-20T07:43:36.544Z,0.82
2023-02-20T07:46:03.162Z,0.82
2023-02-20T07:48:29.851Z,0.87
2023-02-20T07:50:56.498Z,0.93
2023-02-20T07:53:23.070Z,1.04
2023-02-20T07:55:49.602Z,1.18
2023-02-20T07:58:16.159Z,1.54
2023-02-20T08:00:42.747Z,1.57
2023-02-20T08:03:09.349Z,1.41
2023-02-20T08:05:48.287Z,1.36
2023-02-20T08:08:15.606Z,1.38
2023-02-20T08:10:42.100Z,1.51
2023-02-20T08:13:08.646Z,1.40
2023-02-20T08:15:35.274Z,1.31
2023-02-20T08:18:02.494Z,1.25
2023-02-20T08:20:29.750Z,1.49
2023-02-20T08:22:56.388Z,2.00
2023-02-20T08:25:23.092Z,2.59
2023-02-20T08:27:49.748Z,2.65
2023-02-20T08:30:21.394Z,2.47
2023-02-20T08:32:48.060Z,2.60
2023-02-20T08:35:14.819Z,2.53
2023-02-20T08:37:41.404Z,2.36
2023-02-20T08:40:09.070Z,2.54
2023-02-20T08:42:35.628Z,2.57
2023-02-20T08:45:04.432Z,2.38
2023-02-20T08:47:31.110Z,2.23
2023-02-20T08:49:58.967Z,2.17
2023-02-20T08:52:26.470Z,2.53
2023-02-20T08:54:52.936Z,2.53
2023-02-20T08:57:19.619Z,2.43
2023-02-20T08:59:46.257Z,2.40
2023-02-20T09:02:18.428Z,2.60
2023-02-20T09:04:45.653Z,2.85
2023-02-20T09:07:13.999Z,3.01
2023-02-20T09:09:40.838Z,2.94
2023-02-20T09:12:08.506Z,3.10
2023-02-20T09:14:35.472Z,3.06
2023-02-20T09:17:02.001Z,3.26
2023-02-20T09:19:28.618Z,3.32
2023-02-20T09:21:55.260Z,3.46
2023-02-20T09:24:21.876Z,3.49
2023-02-20T09:26:48.564Z,3.42
2023-02-20T09:29:15.466Z,3.18
2023-02-20T09:31:42.181Z,2.93
2023-02-20T09:34:09.087Z,2.91
2023-02-20T09:36:36.603Z,2.68
2023-02-20T09:39:03.152Z,2.54
2023-02-20T09:41:52.606Z,2.54
2023-02-20T09:44:32.505Z,2.53
2023-02-20T09:47:19.309Z,2.67
2023-02-20T09:49:46.023Z,2.80
2023-02-20T09:52:15.959Z,2.93
2023-02-20T09:54:51.924Z,2.97
2023-02-20T09:57:23.895Z,2.65
2023-02-20T09:59:54.147Z,2.85
2023-02-20T10:02:34.227Z,2.75
2023-02-20T10:05:13.498Z,2.79
2023-02-20T10:07:40.567Z,2.58
2023-02-20T10:10:24.471Z,2.52
2023-02-20T10:13:09.153Z,2.39
2023-02-20T10:15:51.642Z,2.34
2023-02-20T10:18:18.058Z,2.00
2023-02-20T10:21:06.509Z,1.93
2023-02-20T10:24:04.713Z,1.68
2023-02-20T10:26:39.899Z,1.55
2023-02-20T10:29:15.349Z,1.43
2023-02-20T10:31:48.173Z,1.35
2023-02-20T10:34:23.864Z,1.51
2023-02-20T10:36:55.368Z,1.32
2023-02-20T10:39:23.394Z,1.35
2023-02-20T10:42:03.373Z,1.44
2023-02-20T10:44:51.037Z,1.78
2023-02-20T10:47:40.834Z,1.92
2023-02-20T10:50:29.369Z,2.19
2023-02-20T10:53:04.028Z,2.17
2023-02-20T10:55:47.370Z,2.39
2023-02-20T10:58:20.197Z,2.38
2023-02-20T11:00:53.699Z,2.59
2023-02-20T11:03:55.674Z,2.68
2023-02-20T11:06:38.145Z,2.43
2023-02-20T11:09:04.785Z,2.38
2023-02-20T11:11:40.373Z,2.48
2023-02-20T11:14:16.428Z,2.71
2023-02-20T11:16:48.314Z,2.75
2023-02-20T11:19:28.745Z,2.73
2023-02-20T11:21:55.257Z,3.04
2023-02-20T11:24:28.601Z,3.28
2023-02-20T11:26:59.838Z,3.24
2023-02-20T11:29:50.812Z,3.37
2023-02-20T11:32:20.270Z,3.46
2023-02-20T11:34:46.862Z,3.57
2023-02-20T11:37:15.436Z,3.73
2023-02-20T11:39:48.764Z,3.75
2023-02-20T11:42:18.378Z,3.76
2023-02-20T11:44:45.069Z,3.65
2023-02-20T11:47:38.138Z,3.61
2023-02-20T11:50:19.650Z,3.64
2023-02-20T11:53:01.427Z,3.56
2023-02-20T11:55:28.350Z,3.52
2023-02-20T11:57:55.399Z,3.63
2023-02-20T12:00:43.409Z,3.53
2023-02-20T12:03:09.879Z,3.45
2023-02-20T12:05:46.366Z,3.45
2023-02-20T12:08:54.075Z,3.41
2023-02-20T12:11:24.575Z,3.31
2023-02-20T12:13:53.259Z,3.49
2023-02-20T12:16:22.553Z,3.60
2023-02-20T12:19:15.383Z,3.70
2023-02-20T12:22:01.246Z,3.68
2023-02-20T12:24:42.947Z,3.63
2023-02-20T12:27:30.814Z,3.65
2023-02-20T12:30:03.298Z,3.59
2023-02-20T12:32:43.895Z,3.41
2023-02-20T12:35:32.326Z,3.33
2023-02-20T12:38:27.557Z,3.21
2023-02-20T12:41:22.061Z,3.27
2023-02-20T12:44:12.973Z,3.26
2023-02-20T12:46:42.971Z,3.34
2023-02-20T12:49:15.569Z,3.38
2023-02-20T12:52:03.428Z,3.34
2023-02-20T12:54:38.858Z,3.22
2023-02-20T12:57:29.521Z,3.18
2023-02-20T13:00:02.063Z,2.96
2023-02-20T13:02:45.935Z,2.82
2023-02-20T13:05:19.156Z,2.59
2023-02-20T13:07:47.352Z,2.56
2023-02-20T13:10:23.091Z,2.43
2023-02-20T13:12:52.132Z,1.86
2023-02-20T13:15:43.813Z,1.78
2023-02-20T13:20:49.776Z,1.25
2023-02-20T13:25:47.286Z,1.21
2023-02-20T13:28:39.898Z,0.88
2023-02-20T13:31:42.814Z,0.82
2023-02-20T13:34:31.435Z,0.68
2023-02-20T13:36:58.683Z,0.52
2023-02-20T13:39:25.162Z,0.53
2023-02-20T13:41:54.840Z,0.50
2023-02-20T13:44:36.644Z,0.49
2023-02-20T13:47:30.438Z,0.46
2023-02-20T13:52:39.714Z,0.16
2023-02-20T14:07:36.541Z,-0.36
2023-02-20T14:10:30.766Z,-0.33
2023-02-20T14:30:34.169Z,-0.80
2023-02-20T14:33:01.396Z,-0.81
2023-02-20T14:35:54.873Z,-0.84
2023-02-20T14:38:33.454Z,-0.91
2023-02-20T14:41:01.376Z,-0.97
2023-02-20T14:43:28.959Z,-0.96
2023-02-20T14:46:04.486Z,-0.95
2023-02-20T16:48:20.365Z,-2.69
2023-02-20T16:50:50.342Z,-2.68
2023-02-20T16:58:10.783Z,-2.65
2023-02-20T17:00:50.909Z,-2.75
2023-02-20T17:08:16.522Z,-2.82
2023-02-20T17:10:43.843Z,-2.79
2023-02-20T17:13:10.316Z,-2.78
2023-02-20T17:20:31.487Z,-2.67
2023-02-20T17:23:04.924Z,-2.57
2023-02-20T17:25:33.195Z,-2.49
2023-02-20T17:27:59.880Z,-2.36
2023-02-20T17:30:26.789Z,-2.23
2023-02-20T17:35:19.953Z,-2.07
2023-02-20T17:37:46.506Z,-2.01
2023-02-20T17:40:13.537Z,-1.95
2023-02-20T17:42:40.095Z,-1.94
2023-02-20T17:45:07.108Z,-1.93
2023-02-20T17:47:33.832Z,-1.93
2023-02-20T17:50:00.669Z,-1.93
2023-02-20T17:52:27.286Z,-1.89
2023-02-20T17:54:53.862Z,-1.86
2023-02-20T17:57:22.413Z,-1.84
2023-02-20T17:59:49.035Z,-1.80
2023-02-20T18:02:16.493Z,-1.77
2023-02-20T18:04:43.263Z,-1.79
2023-02-20T18:07:10.840Z,-1.75
2023-02-20T18:09:38.509Z,-1.70
2023-02-20T18:43:51.934Z,-3.28
2023-02-20T18:46:31.360Z,-3.25
2023-02-20T18:56:19.664Z,-3.63
2023-02-20T18:58:46.269Z,-3.61
2023-02-20T19:01:17.580Z,-3.80
2023-02-20T19:03:44.130Z,-3.85
2023-02-20T19:11:04.439Z,-3.88
2023-02-20T19:13:31.014Z,-3.79
2023-02-20T19:15:57.655Z,-3.78
2023-02-20T19:18:24.204Z,-3.77
2023-02-20T19:20:50.750Z,-3.85
2023-02-20T19:28:10.076Z,-4.03
2023-02-20T19:37:56.643Z,-4.13
2023-02-20T19:40:23.172Z,-4.18
2023-02-20T19:42:49.679Z,-4.14
2023-02-20T19:45:17.025Z,-4.16
2023-02-20T19:47:43.571Z,-4.17
2023-02-20T19:50:10.671Z,-4.07
2023-02-20T19:52:37.592Z,-4.20
2023-02-20T19:59:57.625Z,-4.15
2023-02-20T20:02:25.409Z,-4.06
2023-02-20T20:04:52.293Z,-4.09
2023-02-20T20:07:18.926Z,-4.06
2023-02-20T20:09:45.497Z,-3.94
2023-02-20T20:12:12.102Z,-4.02
2023-02-20T20:14:38.663Z,-3.96
2023-02-20T20:17:05.197Z,-3.89
2023-02-20T20:19:31.699Z,-3.91
2023-02-20T20:21:58.289Z,-4.09
2023-02-20T20:24:24.756Z,-4.01
2023-02-20T20:26:51.248Z,-4.05
2023-02-20T20:29:17.856Z,-3.97
2023-02-20T20:31:44.434Z,-3.90
2023-02-20T20:34:10.958Z,-3.92
2023-02-20T20:36:37.628Z,-3.99
2023-02-20T20:39:05.117Z,-4.04
2023-02-20T20:41:43.023Z,-3.92
2023-02-20T20:44:11.834Z,-3.77
2023-02-20T20:46:38.377Z,-3.76
2023-02-20T20:49:05.128Z,-3.74
2023-02-20T20:51:32.219Z,-3.72
2023-02-20T20:53:58.701Z,-3.73
2023-02-20T20:56:25.260Z,-3.75
2023-02-20T20:58:51.827Z,-3.75
2023-02-20T21:01:18.442Z,-3.79
2023-02-20T21:03:44.926Z,-3.76
2023-02-20T21:06:11.584Z,-3.81
2023-02-20T21:08:38.092Z,-3.82
2023-02-20T21:11:04.591Z,-3.80
2023-02-20T21:13:31.173Z,-3.80
2023-02-20T21:15:57.703Z,-3.75
2023-02-20T21:18:24.260Z,-3.87
2023-02-20T21:20:50.794Z,-3.89
2023-02-20T21:23:17.330Z,-3.92
2023-02-20T21:25:43.856Z,-3.86
2023-02-20T21:28:10.486Z,-3.93
2023-02-20T21:30:37.092Z,-3.98
2023-02-20T21:33:03.666Z,-3.99
2023-02-20T21:35:30.268Z,-3.96
2023-02-20T21:37:56.805Z,-3.91
2023-02-20T21:42:49.946Z,-4.19
2023-02-20T21:45:16.651Z,-4.11
2023-02-20T21:47:43.254Z,-4.17
2023-02-20T21:50:10.850Z,-4.14
2023-02-20T21:52:37.503Z,-4.05
2023-02-20T21:55:10.361Z,-4.13
2023-02-20T21:57:37.377Z,-4.18
2023-02-20T22:00:07.292Z,-4.15
2023-02-20T22:02:33.930Z,-4.19
2023-02-20T22:05:00.578Z,-4.13
2023-02-20T22:07:27.216Z,-4.05
2023-02-20T22:09:53.911Z,-4.18
2023-02-20T22:12:21.380Z,-4.16
2023-02-20T22:14:47.927Z,-4.07
2023-02-20T22:17:14.939Z,-4.16
2023-02-20T22:19:41.965Z,-4.06
2023-02-20T22:22:08.561Z,-4.05
2023-02-20T22:24:39.393Z,-4.17
2023-02-20T22:27:07.736Z,-4.14
2023-02-20T22:29:35.453Z,-4.12
2023-02-20T22:32:02.010Z,-4.18
2023-02-20T22:34:29.053Z,-4.21
2023-02-20T22:36:55.548Z,-4.20
2023-02-20T22:39:22.114Z,-4.19
2023-02-20T22:41:49.021Z,-4.16
2023-02-20T22:44:15.541Z,-4.19
2023-02-20T22:46:42.056Z,-4.21
2023-02-20T22:49:08.743Z,-4.14
2023-02-20T22:51:35.680Z,-4.03
2023-02-20T22:54:02.158Z,-4.08
2023-02-20T22:56:28.698Z,-4.03
2023-02-20T22:58:55.208Z,-4.04
2023-02-20T23:01:21.729Z,-4.06
2023-02-20T23:03:48.395Z,-4.16
2023-02-20T23:08:49.596Z,-4.19
2023-02-20T23:11:16.377Z,-4.24
2023-02-20T23:13:48.492Z,-4.24
2023-02-20T23:16:21.942Z,-4.24
2023-02-20T23:18:48.441Z,-4.18
2023-02-20T23:21:15.473Z,-4.27
2023-02-20T23:26:08.735Z,-4.33
2023-02-20T23:28:37.483Z,-4.40
2023-02-20T23:38:23.989Z,-4.35
2023-02-20T23:40:50.500Z,-4.31
2023-02-20T23:43:17.018Z,-4.26
2023-02-20T23:45:43.684Z,-4.24
2023-02-20T23:48:10.752Z,-4.22
2023-02-20T23:50:38.110Z,-4.23
2023-02-20T23:53:04.771Z,-4.30
2023-02-20T23:55:31.365Z,-4.26
2023-02-20T23:57:57.947Z,-4.35
